General Aviation Weather

Text Reports

Enter one or more of the following location identifiers separated by a space:

Zip Code, Four-Character ICAO or Three-Character IATA airport codes.

METAR - Aviation Routine Weather Report
KLRJ - Le Mars, Iowa
Updated at 3:35 AM GMT on August 01, 2014 (10:35 PM CDT):
METAR KLRJ 010335Z AUTO 00000KT 10SM CLR 17/16 A3006 RMK AO2
TAF - Terminal Area Forecast
KLRJ - Le Mars, Iowa
Updated at 3:35 AM GMT on August 01, 2014 (10:35 PM CDT):
No TAF is currently available for this location.
Decoded:
No decoded TAF is available.
PIREP - Pilot Weather Report
KLRJ - Le Mars, Iowa
Updated at 3:35 AM GMT on August 01, 2014 (10:35 PM CDT):
No PIREP is currently available for this location.
AIRMET - Airmens Meteorological Information
KLRJ - Le Mars, Iowa
Updated at 3:35 AM GMT on August 01, 2014 (10:35 PM CDT):
No AIRMET is currently available for this location.
SIGMET - Significant Meteorological Information
KLRJ - Le Mars, Iowa
Updated at 3:35 AM GMT on August 01, 2014 (10:35 PM CDT):
No SIGMET is currently available for this location.
NOTAM - Notice to Airmen
KLRJ - Le Mars, Iowa
Updated at 3:35 AM GMT on August 01, 2014 (10:35 PM CDT):
No NOTAM is currently available for this location.
Forecast Area
KLRJ - Le Mars, Iowa
Updated at 3:35 AM GMT on August 01, 2014 (10:35 PM CDT):
No NOTAM is currently available for this location.
Aviation Weather Maps